Airfield :
LOGIN :

Register | Disclaimer

   EN    FR    IT 

 










Legend :    VFR   Marginal VFR   IFR   Intensive IFR   Very Intensive IFR
Visi :
Ceiling :
>= 8 km
>= 3000ft
5 to 8 km
1000 to 3000 ft
1500m to 5 km
500 to 1000 ft
800 to 1500m
200 to 500 ft
< 800m
< 200 ft
Symbols :   Thunderstorms  Fog  Heavy snow  Heavy precipitations  Wind > 20 kt
SIGMETs :     Misc.  Thunderstorms  Icing  Turbulence  Mountain Waves  Volcanic Ashes







- Airport Elevation : 157 ft
- IATA code : LIL
- Download approach charts


LFQQ - Lille Lesquin

CURRENT METAR :
  • 160900Z AUTO 28010KT 9999 FEW014 SCT025 BKN035 04/03 Q1014 TEMPO 3000 SHRA BKN008 BKN015CB

EXPIRED METARs :
  • 160830Z AUTO 28008KT 9999 FEW019 BKN031 BKN078 04/03 Q1013 TEMPO 3000 SHRA BKN008 BKN015CB
  • 160800Z AUTO 29008KT 9999 FEW015 BKN026 OVC031 04/02 Q1013 TEMPO 3000 SHRA BKN008 BKN015CB
  • 160730Z AUTO 27006KT 9999 SCT011 BKN026 OVC032 03/03 Q1012 TEMPO 3000 SHRA BKN008 BKN015CB
  • 160700Z AUTO 25004KT 9999 BKN012/// OVC028/// ///TCU 03/02 Q1012 TEMPO 3000 SHRA BKN008 BKN015CB
  • 160630Z AUTO 30004KT 9999 BKN013/// OVC019/// ///TCU 03/02 Q1011 TEMPO 3000 SHRA BKN008 BKN015CB
  • 160600Z AUTO 34010KT 6000 RA FEW010/// BKN022/// BKN034/// ///TCU 03/02 Q1011 TEMPO 3000 SHRA BKN008 BKN015CB

TAF AMD TAF LFQQ
Valid from the 16 at 06:00 until the 17 at 12:00 UTC


160750Z 1606/1712 32010KT 9999 BKN025
TEMPO 1606/1614 32010G20KT 3000 SHRA BKN008 BKN015CB
BECMG 1618/1620 26006KT
BECMG 1700/1703 3000 BR BKN012
BECMG 1708/1710 9999 NSW SCT030
ATIS : +33 3 20 16 19 54
No reported NOTAMs for that airfield.



MET'MAP, your aeronautical weather chart ! - Copyright ORBIFLY December 2007 - Disclaimer

ORBIFLY MET'MAP TEAM :

Programming & Development : Alexandra Zaïnal
Concept & Development : Baudouin d'Aumeries
Co-Development & Prog : Marc-Olivier Méhu
Technical & hardware support : Manuel Goepfert

Contact : metmap@orbifly.com




SOURCES & CREDITS :

   NOAA